sensor_id;sensor_type;location;lat;lon;timestamp;temperature;humidity
20376;DHT22;10347;51.828;6.466;2023-06-22T00:01:52;23.70;99.90
20376;DHT22;10347;51.828;6.466;2023-06-22T00:04:18;23.70;99.90
20376;DHT22;10347;51.828;6.466;2023-06-22T00:06:43;23.60;99.90
20376;DHT22;10347;51.828;6.466;2023-06-22T00:09:09;23.60;99.90
20376;DHT22;10347;51.828;6.466;2023-06-22T00:11:36;23.60;99.90
20376;DHT22;10347;51.828;6.466;2023-06-22T00:14:02;23.60;99.90
20376;DHT22;10347;51.828;6.466;2023-06-22T00:16:28;23.60;99.90
20376;DHT22;10347;51.828;6.466;2023-06-22T00:18:53;23.60;99.90
20376;DHT22;10347;51.828;6.466;2023-06-22T00:21:19;23.60;99.90
20376;DHT22;10347;51.828;6.466;2023-06-22T00:23:46;23.50;99.90
20376;DHT22;10347;51.828;6.466;2023-06-22T00:26:14;23.50;99.90
20376;DHT22;10347;51.828;6.466;2023-06-22T00:28:40;23.50;99.90
20376;DHT22;10347;51.828;6.466;2023-06-22T00:31:05;23.50;99.90
20376;DHT22;10347;51.828;6.466;2023-06-22T00:33:31;23.40;99.90
20376;DHT22;10347;51.828;6.466;2023-06-22T00:35:57;23.40;99.90
20376;DHT22;10347;51.828;6.466;2023-06-22T00:38:22;23.40;99.90
20376;DHT22;10347;51.828;6.466;2023-06-22T00:40:48;23.40;99.90
20376;DHT22;10347;51.828;6.466;2023-06-22T00:43:14;23.40;99.90
20376;DHT22;10347;51.828;6.466;2023-06-22T00:45:39;23.40;99.90
20376;DHT22;10347;51.828;6.466;2023-06-22T00:48:06;23.40;99.90
20376;DHT22;10347;51.828;6.466;2023-06-22T00:50:33;23.40;99.90
20376;DHT22;10347;51.828;6.466;2023-06-22T00:53:01;23.40;99.90
20376;DHT22;10347;51.828;6.466;2023-06-22T00:55:33;23.30;99.90
20376;DHT22;10347;51.828;6.466;2023-06-22T00:58:03;23.30;99.90
20376;DHT22;10347;51.828;6.466;2023-06-22T01:00:31;23.20;99.90
20376;DHT22;10347;51.828;6.466;2023-06-22T01:02:58;23.20;99.90
20376;DHT22;10347;51.828;6.466;2023-06-22T01:05:24;23.20;99.90
20376;DHT22;10347;51.828;6.466;2023-06-22T01:11:10;23.10;99.90
20376;DHT22;10347;51.828;6.466;2023-06-22T01:16:30;23.10;99.90
20376;DHT22;10347;51.828;6.466;2023-06-22T01:19:00;23.00;99.90
20376;DHT22;10347;51.828;6.466;2023-06-22T01:21:28;23.00;99.90
20376;DHT22;10347;51.828;6.466;2023-06-22T01:24:15;23.00;99.90
20376;DHT22;10347;51.828;6.466;2023-06-22T01:27:00;22.90;99.90
20376;DHT22;10347;51.828;6.466;2023-06-22T01:29:30;22.90;99.90
20376;DHT22;10347;51.828;6.466;2023-06-22T01:31:57;22.90;99.90
20376;DHT22;10347;51.828;6.466;2023-06-22T01:34:23;22.90;99.90
20376;DHT22;10347;51.828;6.466;2023-06-22T01:36:50;22.80;99.90
20376;DHT22;10347;51.828;6.466;2023-06-22T01:39:17;22.80;99.90
20376;DHT22;10347;51.828;6.466;2023-06-22T01:41:43;22.80;99.90
20376;DHT22;10347;51.828;6.466;2023-06-22T01:44:09;22.80;99.90
20376;DHT22;10347;51.828;6.466;2023-06-22T01:46:36;22.70;99.90
20376;DHT22;10347;51.828;6.466;2023-06-22T01:49:02;22.70;99.90
20376;DHT22;10347;51.828;6.466;2023-06-22T01:51:29;22.70;99.90
20376;DHT22;10347;51.828;6.466;2023-06-22T01:53:55;22.70;99.90
20376;DHT22;10347;51.828;6.466;2023-06-22T01:56:21;22.70;99.90
20376;DHT22;10347;51.828;6.466;2023-06-22T01:59:02;22.60;99.90
20376;DHT22;10347;51.828;6.466;2023-06-22T02:01:36;22.60;99.90
20376;DHT22;10347;51.828;6.466;2023-06-22T02:04:07;22.60;99.90
20376;DHT22;10347;51.828;6.466;2023-06-22T02:06:37;22.60;99.90
20376;DHT22;10347;51.828;6.466;2023-06-22T02:09:15;22.50;99.90
20376;DHT22;10347;51.828;6.466;2023-06-22T02:11:43;22.50;99.90
20376;DHT22;10347;51.828;6.466;2023-06-22T02:14:10;22.40;99.90
20376;DHT22;10347;51.828;6.466;2023-06-22T02:16:37;22.40;99.90
20376;DHT22;10347;51.828;6.466;2023-06-22T02:19:03;22.50;99.90
20376;DHT22;10347;51.828;6.466;2023-06-22T02:21:29;22.40;99.90
20376;DHT22;10347;51.828;6.466;2023-06-22T02:23:55;22.40;99.90
20376;DHT22;10347;51.828;6.466;2023-06-22T02:26:21;22.30;99.90
20376;DHT22;10347;51.828;6.466;2023-06-22T02:28:47;22.30;99.90
20376;DHT22;10347;51.828;6.466;2023-06-22T02:31:12;22.20;99.90
20376;DHT22;10347;51.828;6.466;2023-06-22T02:33:38;22.20;99.90
20376;DHT22;10347;51.828;6.466;2023-06-22T02:36:04;22.20;99.90
20376;DHT22;10347;51.828;6.466;2023-06-22T02:38:31;22.20;99.90
20376;DHT22;10347;51.828;6.466;2023-06-22T02:40:58;22.20;99.90
20376;DHT22;10347;51.828;6.466;2023-06-22T02:43:24;22.20;99.90
20376;DHT22;10347;51.828;6.466;2023-06-22T02:45:49;22.10;99.90
20376;DHT22;10347;51.828;6.466;2023-06-22T02:48:15;22.10;99.90
20376;DHT22;10347;51.828;6.466;2023-06-22T02:50:41;22.10;99.90
20376;DHT22;10347;51.828;6.466;2023-06-22T02:53:06;22.10;99.90
20376;DHT22;10347;51.828;6.466;2023-06-22T02:55:32;22.00;99.90
20376;DHT22;10347;51.828;6.466;2023-06-22T02:57:57;22.10;99.90
20376;DHT22;10347;51.828;6.466;2023-06-22T03:00:25;22.00;99.90
20376;DHT22;10347;51.828;6.466;2023-06-22T03:02:55;21.90;99.90
20376;DHT22;10347;51.828;6.466;2023-06-22T03:05:21;22.00;99.90
20376;DHT22;10347;51.828;6.466;2023-06-22T03:07:47;22.00;99.90
20376;DHT22;10347;51.828;6.466;2023-06-22T03:10:14;22.00;99.90
20376;DHT22;10347;51.828;6.466;2023-06-22T03:12:40;22.00;99.90
20376;DHT22;10347;51.828;6.466;2023-06-22T03:15:07;21.90;99.90
20376;DHT22;10347;51.828;6.466;2023-06-22T03:17:34;21.90;99.90
20376;DHT22;10347;51.828;6.466;2023-06-22T03:20:00;21.90;99.90
20376;DHT22;10347;51.828;6.466;2023-06-22T03:22:26;21.80;99.90
20376;DHT22;10347;51.828;6.466;2023-06-22T03:24:51;21.80;99.90
20376;DHT22;10347;51.828;6.466;2023-06-22T03:27:17;21.80;99.90
20376;DHT22;10347;51.828;6.466;2023-06-22T03:29:43;21.70;99.90
20376;DHT22;10347;51.828;6.466;2023-06-22T03:32:10;21.70;99.90
20376;DHT22;10347;51.828;6.466;2023-06-22T03:34:35;21.70;99.90
20376;DHT22;10347;51.828;6.466;2023-06-22T03:37:04;21.70;99.90
20376;DHT22;10347;51.828;6.466;2023-06-22T03:39:29;21.70;99.90
20376;DHT22;10347;51.828;6.466;2023-06-22T03:41:55;21.70;99.90
20376;DHT22;10347;51.828;6.466;2023-06-22T03:44:20;21.70;99.90
20376;DHT22;10347;51.828;6.466;2023-06-22T03:46:46;21.60;99.90
20376;DHT22;10347;51.828;6.466;2023-06-22T03:49:12;21.60;99.90
20376;DHT22;10347;51.828;6.466;2023-06-22T03:51:37;21.60;99.90
20376;DHT22;10347;51.828;6.466;2023-06-22T03:54:03;21.60;99.90
20376;DHT22;10347;51.828;6.466;2023-06-22T03:56:28;21.60;99.90
20376;DHT22;10347;51.828;6.466;2023-06-22T03:58:54;21.50;99.90
20376;DHT22;10347;51.828;6.466;2023-06-22T04:01:19;21.50;99.90
20376;DHT22;10347;51.828;6.466;2023-06-22T04:03:45;21.50;99.90
20376;DHT22;10347;51.828;6.466;2023-06-22T04:06:13;21.40;99.90
20376;DHT22;10347;51.828;6.466;2023-06-22T04:08:39;21.40;99.90
20376;DHT22;10347;51.828;6.466;2023-06-22T04:11:04;21.40;99.90
20376;DHT22;10347;51.828;6.466;2023-06-22T04:13:30;21.40;99.90
20376;DHT22;10347;51.828;6.466;2023-06-22T04:15:55;21.40;99.90
20376;DHT22;10347;51.828;6.466;2023-06-22T04:18:21;21.40;99.90
20376;DHT22;10347;51.828;6.466;2023-06-22T04:20:47;21.40;99.90
20376;DHT22;10347;51.828;6.466;2023-06-22T04:23:13;21.40;99.90
20376;DHT22;10347;51.828;6.466;2023-06-22T04:25:39;21.40;99.90
20376;DHT22;10347;51.828;6.466;2023-06-22T04:28:04;21.40;99.90
20376;DHT22;10347;51.828;6.466;2023-06-22T04:30:32;21.30;99.90
20376;DHT22;10347;51.828;6.466;2023-06-22T04:32:58;21.30;99.90
20376;DHT22;10347;51.828;6.466;2023-06-22T04:35:24;21.30;99.90
20376;DHT22;10347;51.828;6.466;2023-06-22T04:37:50;21.40;99.90
20376;DHT22;10347;51.828;6.466;2023-06-22T04:40:21;21.30;99.90
20376;DHT22;10347;51.828;6.466;2023-06-22T04:42:46;21.30;99.90
20376;DHT22;10347;51.828;6.466;2023-06-22T04:45:17;21.30;99.90
20376;DHT22;10347;51.828;6.466;2023-06-22T04:47:43;21.30;99.90
20376;DHT22;10347;51.828;6.466;2023-06-22T04:50:11;21.30;99.90
20376;DHT22;10347;51.828;6.466;2023-06-22T04:52:37;21.30;99.90
20376;DHT22;10347;51.828;6.466;2023-06-22T04:55:03;21.30;99.90
20376;DHT22;10347;51.828;6.466;2023-06-22T04:57:29;21.20;99.90
20376;DHT22;10347;51.828;6.466;2023-06-22T05:00:01;21.20;99.90
20376;DHT22;10347;51.828;6.466;2023-06-22T05:02:41;21.20;99.90
20376;DHT22;10347;51.828;6.466;2023-06-22T05:05:07;21.20;99.90
20376;DHT22;10347;51.828;6.466;2023-06-22T05:07:34;21.20;99.90
20376;DHT22;10347;51.828;6.466;2023-06-22T05:10:00;21.20;99.90
20376;DHT22;10347;51.828;6.466;2023-06-22T05:12:27;21.20;99.90
20376;DHT22;10347;51.828;6.466;2023-06-22T05:14:53;21.20;99.90
20376;DHT22;10347;51.828;6.466;2023-06-22T05:17:19;21.20;99.90
20376;DHT22;10347;51.828;6.466;2023-06-22T05:19:45;21.20;99.90
20376;DHT22;10347;51.828;6.466;2023-06-22T05:22:15;21.20;99.90
20376;DHT22;10347;51.828;6.466;2023-06-22T05:24:40;21.20;99.90
20376;DHT22;10347;51.828;6.466;2023-06-22T05:27:06;21.30;99.90
20376;DHT22;10347;51.828;6.466;2023-06-22T05:29:32;21.30;99.90
20376;DHT22;10347;51.828;6.466;2023-06-22T05:31:57;21.30;99.90
20376;DHT22;10347;51.828;6.466;2023-06-22T05:34:23;21.40;99.90
20376;DHT22;10347;51.828;6.466;2023-06-22T05:36:48;21.40;99.90
20376;DHT22;10347;51.828;6.466;2023-06-22T05:39:14;21.40;99.90
20376;DHT22;10347;51.828;6.466;2023-06-22T05:41:40;21.40;99.90
20376;DHT22;10347;51.828;6.466;2023-06-22T05:44:06;21.40;99.90
20376;DHT22;10347;51.828;6.466;2023-06-22T05:46:32;21.30;99.90
20376;DHT22;10347;51.828;6.466;2023-06-22T05:48:58;21.30;99.90
20376;DHT22;10347;51.828;6.466;2023-06-22T05:51:23;21.40;99.90
20376;DHT22;10347;51.828;6.466;2023-06-22T05:53:49;21.40;99.90
20376;DHT22;10347;51.828;6.466;2023-06-22T05:56:18;21.40;99.90
20376;DHT22;10347;51.828;6.466;2023-06-22T05:58:44;21.40;99.90
20376;DHT22;10347;51.828;6.466;2023-06-22T06:01:10;21.40;99.90
20376;DHT22;10347;51.828;6.466;2023-06-22T06:03:35;21.40;99.90
20376;DHT22;10347;51.828;6.466;2023-06-22T06:06:06;21.50;99.90
20376;DHT22;10347;51.828;6.466;2023-06-22T06:08:32;21.50;99.90
20376;DHT22;10347;51.828;6.466;2023-06-22T06:10:57;21.50;99.90
20376;DHT22;10347;51.828;6.466;2023-06-22T06:13:23;21.50;99.90
20376;DHT22;10347;51.828;6.466;2023-06-22T06:15:49;21.50;99.90
20376;DHT22;10347;51.828;6.466;2023-06-22T06:18:17;21.60;99.90
20376;DHT22;10347;51.828;6.466;2023-06-22T06:20:42;21.60;99.90
20376;DHT22;10347;51.828;6.466;2023-06-22T06:23:08;21.60;99.90
20376;DHT22;10347;51.828;6.466;2023-06-22T06:25:34;21.60;99.90
20376;DHT22;10347;51.828;6.466;2023-06-22T06:27:59;21.60;99.90
20376;DHT22;10347;51.828;6.466;2023-06-22T06:30:25;21.60;99.90
20376;DHT22;10347;51.828;6.466;2023-06-22T06:32:50;21.60;99.90
20376;DHT22;10347;51.828;6.466;2023-06-22T06:35:16;21.70;99.90
20376;DHT22;10347;51.828;6.466;2023-06-22T06:37:44;21.70;99.90
20376;DHT22;10347;51.828;6.466;2023-06-22T06:40:10;21.70;99.90
20376;DHT22;10347;51.828;6.466;2023-06-22T06:42:37;21.70;99.90
20376;DHT22;10347;51.828;6.466;2023-06-22T06:45:06;21.70;99.90
20376;DHT22;10347;51.828;6.466;2023-06-22T06:47:32;21.80;99.90
20376;DHT22;10347;51.828;6.466;2023-06-22T06:49:57;21.80;99.90
20376;DHT22;10347;51.828;6.466;2023-06-22T06:52:23;21.80;99.90
20376;DHT22;10347;51.828;6.466;2023-06-22T06:54:48;21.90;99.90
20376;DHT22;10347;51.828;6.466;2023-06-22T06:57:14;21.90;99.90
20376;DHT22;10347;51.828;6.466;2023-06-22T06:59:40;21.90;99.90
20376;DHT22;10347;51.828;6.466;2023-06-22T07:02:06;21.90;99.90
20376;DHT22;10347;51.828;6.466;2023-06-22T07:04:32;21.90;99.90
20376;DHT22;10347;51.828;6.466;2023-06-22T07:07:00;22.00;99.90
20376;DHT22;10347;51.828;6.466;2023-06-22T07:10:02;22.00;99.90
20376;DHT22;10347;51.828;6.466;2023-06-22T07:12:28;22.00;99.90
20376;DHT22;10347;51.828;6.466;2023-06-22T07:14:57;22.10;99.90
20376;DHT22;10347;51.828;6.466;2023-06-22T07:17:26;22.10;99.90
20376;DHT22;10347;51.828;6.466;2023-06-22T07:19:51;22.20;99.90
20376;DHT22;10347;51.828;6.466;2023-06-22T07:22:17;22.20;99.90
20376;DHT22;10347;51.828;6.466;2023-06-22T07:24:42;22.20;99.90
20376;DHT22;10347;51.828;6.466;2023-06-22T07:27:08;22.20;99.90
20376;DHT22;10347;51.828;6.466;2023-06-22T07:29:36;22.20;99.90
20376;DHT22;10347;51.828;6.466;2023-06-22T07:32:02;22.30;99.90
20376;DHT22;10347;51.828;6.466;2023-06-22T07:34:30;22.30;99.90
20376;DHT22;10347;51.828;6.466;2023-06-22T07:36:55;22.40;99.90
20376;DHT22;10347;51.828;6.466;2023-06-22T07:39:21;22.30;99.90
20376;DHT22;10347;51.828;6.466;2023-06-22T07:41:51;22.30;99.90
20376;DHT22;10347;51.828;6.466;2023-06-22T07:44:17;22.40;99.90
20376;DHT22;10347;51.828;6.466;2023-06-22T07:46:42;22.40;99.90
20376;DHT22;10347;51.828;6.466;2023-06-22T07:49:08;22.40;99.90
20376;DHT22;10347;51.828;6.466;2023-06-22T07:51:34;22.40;99.90
20376;DHT22;10347;51.828;6.466;2023-06-22T07:53:59;22.50;99.90
20376;DHT22;10347;51.828;6.466;2023-06-22T07:56:25;22.50;99.90
20376;DHT22;10347;51.828;6.466;2023-06-22T07:58:51;22.50;99.90
20376;DHT22;10347;51.828;6.466;2023-06-22T08:01:17;22.50;99.90
20376;DHT22;10347;51.828;6.466;2023-06-22T08:03:43;22.50;99.90
20376;DHT22;10347;51.828;6.466;2023-06-22T08:06:09;22.50;99.90
20376;DHT22;10347;51.828;6.466;2023-06-22T08:08:36;22.50;99.90
20376;DHT22;10347;51.828;6.466;2023-06-22T08:11:01;22.60;99.90
20376;DHT22;10347;51.828;6.466;2023-06-22T08:13:27;22.60;99.90
20376;DHT22;10347;51.828;6.466;2023-06-22T08:15:52;22.60;99.90
20376;DHT22;10347;51.828;6.466;2023-06-22T08:18:18;22.60;99.90
20376;DHT22;10347;51.828;6.466;2023-06-22T08:20:44;22.60;99.90
20376;DHT22;10347;51.828;6.466;2023-06-22T08:23:09;22.60;99.90
20376;DHT22;10347;51.828;6.466;2023-06-22T08:25:35;22.60;99.90
20376;DHT22;10347;51.828;6.466;2023-06-22T08:28:02;22.70;99.90
20376;DHT22;10347;51.828;6.466;2023-06-22T08:30:27;22.80;99.90
20376;DHT22;10347;51.828;6.466;2023-06-22T08:32:53;22.70;99.90
20376;DHT22;10347;51.828;6.466;2023-06-22T08:35:21;22.80;99.90
20376;DHT22;10347;51.828;6.466;2023-06-22T08:37:47;22.90;99.90
20376;DHT22;10347;51.828;6.466;2023-06-22T08:40:17;22.90;99.90
20376;DHT22;10347;51.828;6.466;2023-06-22T08:42:43;22.90;99.90
20376;DHT22;10347;51.828;6.466;2023-06-22T08:45:09;22.90;99.90
20376;DHT22;10347;51.828;6.466;2023-06-22T08:47:34;23.00;99.90
20376;DHT22;10347;51.828;6.466;2023-06-22T08:50:00;23.00;99.90
20376;DHT22;10347;51.828;6.466;2023-06-22T08:52:28;23.00;99.90
20376;DHT22;10347;51.828;6.466;2023-06-22T08:54:54;23.10;99.90
20376;DHT22;10347;51.828;6.466;2023-06-22T08:57:20;23.10;99.90
20376;DHT22;10347;51.828;6.466;2023-06-22T08:59:46;23.20;99.90
20376;DHT22;10347;51.828;6.466;2023-06-22T09:02:12;23.20;99.90
20376;DHT22;10347;51.828;6.466;2023-06-22T09:04:37;23.20;99.90
20376;DHT22;10347;51.828;6.466;2023-06-22T09:07:03;23.20;99.90
20376;DHT22;10347;51.828;6.466;2023-06-22T09:09:29;23.30;99.90
20376;DHT22;10347;51.828;6.466;2023-06-22T09:11:54;23.40;99.90
20376;DHT22;10347;51.828;6.466;2023-06-22T09:14:20;23.40;99.90
20376;DHT22;10347;51.828;6.466;2023-06-22T09:16:45;23.50;99.90
20376;DHT22;10347;51.828;6.466;2023-06-22T09:19:11;23.50;99.90
20376;DHT22;10347;51.828;6.466;2023-06-22T09:21:37;23.50;99.90
20376;DHT22;10347;51.828;6.466;2023-06-22T09:24:03;23.50;99.90
20376;DHT22;10347;51.828;6.466;2023-06-22T09:26:29;23.60;99.90
20376;DHT22;10347;51.828;6.466;2023-06-22T09:28:54;23.60;99.90
20376;DHT22;10347;51.828;6.466;2023-06-22T09:31:20;23.60;99.90
20376;DHT22;10347;51.828;6.466;2023-06-22T09:33:54;23.60;99.90
20376;DHT22;10347;51.828;6.466;2023-06-22T09:36:21;23.70;99.90
20376;DHT22;10347;51.828;6.466;2023-06-22T09:38:47;23.70;99.90
20376;DHT22;10347;51.828;6.466;2023-06-22T09:41:13;23.80;99.90
20376;DHT22;10347;51.828;6.466;2023-06-22T09:43:39;23.80;99.90
20376;DHT22;10347;51.828;6.466;2023-06-22T09:48:56;23.80;99.90
20376;DHT22;10347;51.828;6.466;2023-06-22T09:51:22;23.80;99.90
20376;DHT22;10347;51.828;6.466;2023-06-22T09:53:49;23.80;99.90
20376;DHT22;10347;51.828;6.466;2023-06-22T09:56:15;23.90;99.90
20376;DHT22;10347;51.828;6.466;2023-06-22T09:58:42;23.90;99.90
20376;DHT22;10347;51.828;6.466;2023-06-22T10:01:08;23.90;99.90
20376;DHT22;10347;51.828;6.466;2023-06-22T10:03:33;23.90;99.90
20376;DHT22;10347;51.828;6.466;2023-06-22T10:05:59;24.00;99.90
20376;DHT22;10347;51.828;6.466;2023-06-22T10:08:24;24.00;99.90
20376;DHT22;10347;51.828;6.466;2023-06-22T10:10:50;24.00;99.90
20376;DHT22;10347;51.828;6.466;2023-06-22T10:13:16;24.00;99.90
20376;DHT22;10347;51.828;6.466;2023-06-22T10:15:41;24.00;99.90
20376;DHT22;10347;51.828;6.466;2023-06-22T10:18:07;24.00;99.90
20376;DHT22;10347;51.828;6.466;2023-06-22T10:20:32;24.10;99.90
20376;DHT22;10347;51.828;6.466;2023-06-22T10:22:58;24.10;99.90
20376;DHT22;10347;51.828;6.466;2023-06-22T10:25:24;24.10;99.90
20376;DHT22;10347;51.828;6.466;2023-06-22T10:27:49;24.10;99.90
20376;DHT22;10347;51.828;6.466;2023-06-22T10:30:15;24.10;99.90
20376;DHT22;10347;51.828;6.466;2023-06-22T10:32:42;24.10;99.90
20376;DHT22;10347;51.828;6.466;2023-06-22T10:35:08;24.10;99.90
20376;DHT22;10347;51.828;6.466;2023-06-22T10:37:35;24.10;99.90
20376;DHT22;10347;51.828;6.466;2023-06-22T10:40:01;24.20;99.90
20376;DHT22;10347;51.828;6.466;2023-06-22T10:42:27;24.20;99.90
20376;DHT22;10347;51.828;6.466;2023-06-22T10:44:52;24.10;99.90
20376;DHT22;10347;51.828;6.466;2023-06-22T10:47:18;24.10;99.90
20376;DHT22;10347;51.828;6.466;2023-06-22T10:49:43;24.10;99.90
20376;DHT22;10347;51.828;6.466;2023-06-22T10:52:09;24.10;99.90
20376;DHT22;10347;51.828;6.466;2023-06-22T10:54:38;24.10;99.90
20376;DHT22;10347;51.828;6.466;2023-06-22T10:57:04;24.20;99.90
20376;DHT22;10347;51.828;6.466;2023-06-22T10:59:29;24.20;99.90
20376;DHT22;10347;51.828;6.466;2023-06-22T11:01:56;24.20;99.90
20376;DHT22;10347;51.828;6.466;2023-06-22T11:04:22;24.20;99.90
20376;DHT22;10347;51.828;6.466;2023-06-22T11:06:48;24.20;99.90
20376;DHT22;10347;51.828;6.466;2023-06-22T11:09:14;24.20;99.90
20376;DHT22;10347;51.828;6.466;2023-06-22T11:11:44;24.20;99.90
20376;DHT22;10347;51.828;6.466;2023-06-22T11:14:10;24.20;99.90
20376;DHT22;10347;51.828;6.466;2023-06-22T11:16:35;24.20;99.90
20376;DHT22;10347;51.828;6.466;2023-06-22T11:19:01;24.20;99.90
20376;DHT22;10347;51.828;6.466;2023-06-22T11:21:26;24.20;99.90
20376;DHT22;10347;51.828;6.466;2023-06-22T11:23:52;24.20;99.90
20376;DHT22;10347;51.828;6.466;2023-06-22T11:26:17;24.20;99.90
20376;DHT22;10347;51.828;6.466;2023-06-22T11:28:43;24.20;99.90
20376;DHT22;10347;51.828;6.466;2023-06-22T11:31:09;24.30;99.90
20376;DHT22;10347;51.828;6.466;2023-06-22T11:33:34;24.20;99.90
20376;DHT22;10347;51.828;6.466;2023-06-22T11:36:00;24.30;99.90
20376;DHT22;10347;51.828;6.466;2023-06-22T11:38:25;24.20;99.90
20376;DHT22;10347;51.828;6.466;2023-06-22T11:40:51;24.20;99.90
20376;DHT22;10347;51.828;6.466;2023-06-22T11:43:16;24.20;99.90
20376;DHT22;10347;51.828;6.466;2023-06-22T11:45:42;24.20;99.90
20376;DHT22;10347;51.828;6.466;2023-06-22T11:48:07;24.20;99.90
20376;DHT22;10347;51.828;6.466;2023-06-22T11:50:33;24.20;99.90
20376;DHT22;10347;51.828;6.466;2023-06-22T11:53:02;24.20;99.90
20376;DHT22;10347;51.828;6.466;2023-06-22T11:55:28;24.10;99.90
20376;DHT22;10347;51.828;6.466;2023-06-22T11:57:56;24.10;99.90
20376;DHT22;10347;51.828;6.466;2023-06-22T12:00:24;24.10;99.90
20376;DHT22;10347;51.828;6.466;2023-06-22T12:02:50;24.10;99.90
20376;DHT22;10347;51.828;6.466;2023-06-22T12:05:19;24.10;99.90
20376;DHT22;10347;51.828;6.466;2023-06-22T12:07:49;24.10;99.90
20376;DHT22;10347;51.828;6.466;2023-06-22T12:10:15;24.10;99.90
20376;DHT22;10347;51.828;6.466;2023-06-22T12:12:41;24.10;99.90
20376;DHT22;10347;51.828;6.466;2023-06-22T12:15:08;24.20;99.90
20376;DHT22;10347;51.828;6.466;2023-06-22T12:17:34;24.20;99.90
20376;DHT22;10347;51.828;6.466;2023-06-22T12:20:00;24.20;99.90
20376;DHT22;10347;51.828;6.466;2023-06-22T12:22:25;24.20;99.90
20376;DHT22;10347;51.828;6.466;2023-06-22T12:24:51;24.20;99.90
20376;DHT22;10347;51.828;6.466;2023-06-22T12:27:17;24.20;99.90
20376;DHT22;10347;51.828;6.466;2023-06-22T12:29:46;24.20;99.90
20376;DHT22;10347;51.828;6.466;2023-06-22T12:32:13;24.20;99.90
20376;DHT22;10347;51.828;6.466;2023-06-22T12:34:39;24.20;99.90
20376;DHT22;10347;51.828;6.466;2023-06-22T12:37:05;24.10;99.90
20376;DHT22;10347;51.828;6.466;2023-06-22T12:39:31;24.00;99.90
20376;DHT22;10347;51.828;6.466;2023-06-22T12:41:57;23.80;99.90
20376;DHT22;10347;51.828;6.466;2023-06-22T12:44:22;23.80;99.90
20376;DHT22;10347;51.828;6.466;2023-06-22T12:46:48;23.70;99.90
20376;DHT22;10347;51.828;6.466;2023-06-22T12:49:13;23.60;99.90
20376;DHT22;10347;51.828;6.466;2023-06-22T12:51:40;23.50;99.90
20376;DHT22;10347;51.828;6.466;2023-06-22T12:54:07;23.50;99.90
20376;DHT22;10347;51.828;6.466;2023-06-22T12:56:33;23.50;99.90
20376;DHT22;10347;51.828;6.466;2023-06-22T12:58:59;23.40;99.90
20376;DHT22;10347;51.828;6.466;2023-06-22T13:01:27;23.30;99.90
20376;DHT22;10347;51.828;6.466;2023-06-22T13:03:53;23.30;99.90
20376;DHT22;10347;51.828;6.466;2023-06-22T13:06:18;23.30;99.90
20376;DHT22;10347;51.828;6.466;2023-06-22T13:08:44;23.30;99.90
20376;DHT22;10347;51.828;6.466;2023-06-22T13:11:09;23.20;99.90
20376;DHT22;10347;51.828;6.466;2023-06-22T13:13:35;23.20;99.90
20376;DHT22;10347;51.828;6.466;2023-06-22T13:16:01;23.20;99.90
20376;DHT22;10347;51.828;6.466;2023-06-22T13:18:26;23.20;99.90
20376;DHT22;10347;51.828;6.466;2023-06-22T13:20:52;23.30;99.90
20376;DHT22;10347;51.828;6.466;2023-06-22T13:23:20;23.20;99.90
20376;DHT22;10347;51.828;6.466;2023-06-22T13:25:46;23.20;99.90
20376;DHT22;10347;51.828;6.466;2023-06-22T13:28:11;23.20;99.90
20376;DHT22;10347;51.828;6.466;2023-06-22T13:30:40;23.30;99.90
20376;DHT22;10347;51.828;6.466;2023-06-22T13:33:05;23.30;99.90
20376;DHT22;10347;51.828;6.466;2023-06-22T13:35:31;23.20;99.90
20376;DHT22;10347;51.828;6.466;2023-06-22T13:37:56;23.20;99.90
20376;DHT22;10347;51.828;6.466;2023-06-22T13:40:22;23.20;99.90
20376;DHT22;10347;51.828;6.466;2023-06-22T13:42:47;23.20;99.90
20376;DHT22;10347;51.828;6.466;2023-06-22T13:45:13;23.20;99.90
20376;DHT22;10347;51.828;6.466;2023-06-22T13:47:39;23.20;99.90
20376;DHT22;10347;51.828;6.466;2023-06-22T13:50:05;23.10;99.90
20376;DHT22;10347;51.828;6.466;2023-06-22T13:52:31;23.10;99.90
20376;DHT22;10347;51.828;6.466;2023-06-22T13:54:57;23.10;99.90
20376;DHT22;10347;51.828;6.466;2023-06-22T13:57:22;23.20;99.90
20376;DHT22;10347;51.828;6.466;2023-06-22T13:59:48;23.20;99.90
20376;DHT22;10347;51.828;6.466;2023-06-22T14:02:13;23.20;99.90
20376;DHT22;10347;51.828;6.466;2023-06-22T14:04:39;23.30;99.90
20376;DHT22;10347;51.828;6.466;2023-06-22T14:07:05;23.20;99.90
20376;DHT22;10347;51.828;6.466;2023-06-22T14:09:30;23.30;99.90
20376;DHT22;10347;51.828;6.466;2023-06-22T14:11:56;23.30;99.90
20376;DHT22;10347;51.828;6.466;2023-06-22T14:14:21;23.20;99.90
20376;DHT22;10347;51.828;6.466;2023-06-22T14:16:47;23.30;99.90
20376;DHT22;10347;51.828;6.466;2023-06-22T14:19:16;23.20;99.90
20376;DHT22;10347;51.828;6.466;2023-06-22T14:21:42;23.30;99.90
20376;DHT22;10347;51.828;6.466;2023-06-22T14:24:08;23.30;99.90
20376;DHT22;10347;51.828;6.466;2023-06-22T14:26:33;23.30;99.90
20376;DHT22;10347;51.828;6.466;2023-06-22T14:28:59;23.30;99.90
20376;DHT22;10347;51.828;6.466;2023-06-22T14:31:24;23.20;99.90
20376;DHT22;10347;51.828;6.466;2023-06-22T14:33:50;23.30;99.90
20376;DHT22;10347;51.828;6.466;2023-06-22T14:36:16;23.30;99.90
20376;DHT22;10347;51.828;6.466;2023-06-22T14:38:42;23.30;99.90
20376;DHT22;10347;51.828;6.466;2023-06-22T14:41:08;23.20;99.90
20376;DHT22;10347;51.828;6.466;2023-06-22T14:43:34;23.20;99.90
20376;DHT22;10347;51.828;6.466;2023-06-22T14:45:59;23.20;99.90
20376;DHT22;10347;51.828;6.466;2023-06-22T14:48:25;23.20;99.90
20376;DHT22;10347;51.828;6.466;2023-06-22T14:50:51;23.20;99.90
20376;DHT22;10347;51.828;6.466;2023-06-22T14:53:16;23.20;99.90
20376;DHT22;10347;51.828;6.466;2023-06-22T14:55:42;23.20;99.90
20376;DHT22;10347;51.828;6.466;2023-06-22T14:58:07;23.20;99.90
20376;DHT22;10347;51.828;6.466;2023-06-22T15:00:33;23.20;99.90
20376;DHT22;10347;51.828;6.466;2023-06-22T15:02:59;23.20;99.90
20376;DHT22;10347;51.828;6.466;2023-06-22T15:05:25;23.20;99.90
20376;DHT22;10347;51.828;6.466;2023-06-22T15:07:50;23.20;99.90
20376;DHT22;10347;51.828;6.466;2023-06-22T15:10:17;23.20;99.90
20376;DHT22;10347;51.828;6.466;2023-06-22T15:12:42;23.20;99.90
20376;DHT22;10347;51.828;6.466;2023-06-22T15:15:08;23.20;99.90
20376;DHT22;10347;51.828;6.466;2023-06-22T15:17:34;23.20;99.90
20376;DHT22;10347;51.828;6.466;2023-06-22T15:19:59;23.20;99.90
20376;DHT22;10347;51.828;6.466;2023-06-22T15:22:25;23.20;99.90
20376;DHT22;10347;51.828;6.466;2023-06-22T15:24:51;23.20;99.90
20376;DHT22;10347;51.828;6.466;2023-06-22T15:27:19;23.20;99.90
20376;DHT22;10347;51.828;6.466;2023-06-22T15:29:45;23.20;99.90
20376;DHT22;10347;51.828;6.466;2023-06-22T15:32:11;23.20;99.90
20376;DHT22;10347;51.828;6.466;2023-06-22T15:34:37;23.20;99.90